sensor_id;sensor_type;location;lat;lon;timestamp;P1;durP1;ratioP1;P2;durP2;ratioP2
62584;SDS011;48643;51.670;5.808;2024-02-16T00:02:05;3.90;;;2.03;;
62584;SDS011;48643;51.670;5.808;2024-02-16T00:04:31;3.97;;;2.08;;
62584;SDS011;48643;51.670;5.808;2024-02-16T00:06:58;4.85;;;2.00;;
62584;SDS011;48643;51.670;5.808;2024-02-16T00:09:25;4.15;;;2.00;;
62584;SDS011;48643;51.670;5.808;2024-02-16T00:11:53;4.32;;;2.17;;
62584;SDS011;48643;51.670;5.808;2024-02-16T00:14:21;7.35;;;2.40;;
62584;SDS011;48643;51.670;5.808;2024-02-16T00:16:48;3.33;;;2.10;;
62584;SDS011;48643;51.670;5.808;2024-02-16T00:19:15;3.92;;;2.10;;
62584;SDS011;48643;51.670;5.808;2024-02-16T00:21:42;3.95;;;2.05;;
62584;SDS011;48643;51.670;5.808;2024-02-16T00:24:09;4.10;;;2.05;;
62584;SDS011;48643;51.670;5.808;2024-02-16T00:26:37;5.00;;;2.35;;
62584;SDS011;48643;51.670;5.808;2024-02-16T00:31:33;4.47;;;2.15;;
62584;SDS011;48643;51.670;5.808;2024-02-16T00:34:00;4.25;;;2.00;;
62584;SDS011;48643;51.670;5.808;2024-02-16T00:36:27;3.03;;;2.03;;
62584;SDS011;48643;51.670;5.808;2024-02-16T00:38:54;4.50;;;2.20;;
62584;SDS011;48643;51.670;5.808;2024-02-16T00:41:22;3.70;;;2.10;;
62584;SDS011;48643;51.670;5.808;2024-02-16T00:43:49;3.83;;;2.25;;
62584;SDS011;48643;51.670;5.808;2024-02-16T00:46:18;5.03;;;1.97;;
62584;SDS011;48643;51.670;5.808;2024-02-16T00:48:45;3.88;;;2.20;;
62584;SDS011;48643;51.670;5.808;2024-02-16T00:51:13;3.17;;;1.95;;
62584;SDS011;48643;51.670;5.808;2024-02-16T00:53:40;5.40;;;2.28;;
62584;SDS011;48643;51.670;5.808;2024-02-16T00:56:07;4.80;;;2.10;;
62584;SDS011;48643;51.670;5.808;2024-02-16T00:58:35;4.90;;;2.33;;
62584;SDS011;48643;51.670;5.808;2024-02-16T01:01:03;4.55;;;2.20;;
62584;SDS011;48643;51.670;5.808;2024-02-16T01:03:30;5.38;;;2.10;;
62584;SDS011;48643;51.670;5.808;2024-02-16T01:05:57;4.97;;;2.28;;
62584;SDS011;48643;51.670;5.808;2024-02-16T01:08:24;4.07;;;2.17;;
62584;SDS011;48643;51.670;5.808;2024-02-16T01:10:53;6.10;;;2.20;;
62584;SDS011;48643;51.670;5.808;2024-02-16T01:13:20;3.95;;;2.17;;
62584;SDS011;48643;51.670;5.808;2024-02-16T01:15:47;3.80;;;2.00;;
62584;SDS011;48643;51.670;5.808;2024-02-16T01:18:14;4.40;;;2.30;;
62584;SDS011;48643;51.670;5.808;2024-02-16T01:20:42;3.65;;;2.20;;
62584;SDS011;48643;51.670;5.808;2024-02-16T01:23:09;3.63;;;2.10;;
62584;SDS011;48643;51.670;5.808;2024-02-16T01:25:36;4.40;;;2.10;;
62584;SDS011;48643;51.670;5.808;2024-02-16T01:28:02;2.88;;;1.90;;
62584;SDS011;48643;51.670;5.808;2024-02-16T01:30:30;5.35;;;2.30;;
62584;SDS011;48643;51.670;5.808;2024-02-16T01:32:57;5.45;;;2.25;;
62584;SDS011;48643;51.670;5.808;2024-02-16T01:35:24;6.53;;;2.42;;
62584;SDS011;48643;51.670;5.808;2024-02-16T01:37:50;6.97;;;2.30;;
62584;SDS011;48643;51.670;5.808;2024-02-16T01:40:17;3.50;;;2.20;;
62584;SDS011;48643;51.670;5.808;2024-02-16T01:42:44;6.38;;;2.25;;
62584;SDS011;48643;51.670;5.808;2024-02-16T01:45:13;5.22;;;2.50;;
62584;SDS011;48643;51.670;5.808;2024-02-16T01:47:41;7.38;;;2.45;;
62584;SDS011;48643;51.670;5.808;2024-02-16T01:50:09;5.10;;;2.00;;
62584;SDS011;48643;51.670;5.808;2024-02-16T01:52:36;4.60;;;2.10;;
62584;SDS011;48643;51.670;5.808;2024-02-16T01:55:04;4.47;;;2.20;;
62584;SDS011;48643;51.670;5.808;2024-02-16T01:57:53;4.63;;;2.47;;
62584;SDS011;48643;51.670;5.808;2024-02-16T02:00:21;6.30;;;2.50;;
62584;SDS011;48643;51.670;5.808;2024-02-16T02:02:48;3.03;;;2.20;;
62584;SDS011;48643;51.670;5.808;2024-02-16T02:05:15;3.63;;;2.30;;
62584;SDS011;48643;51.670;5.808;2024-02-16T02:07:42;3.35;;;2.25;;
62584;SDS011;48643;51.670;5.808;2024-02-16T02:10:10;4.95;;;2.30;;
62584;SDS011;48643;51.670;5.808;2024-02-16T02:12:40;6.22;;;2.17;;
62584;SDS011;48643;51.670;5.808;2024-02-16T02:15:09;5.32;;;2.30;;
62584;SDS011;48643;51.670;5.808;2024-02-16T02:17:36;3.22;;;2.30;;
62584;SDS011;48643;51.670;5.808;2024-02-16T02:20:03;3.97;;;2.20;;
62584;SDS011;48643;51.670;5.808;2024-02-16T02:22:33;2.78;;;2.00;;
62584;SDS011;48643;51.670;5.808;2024-02-16T02:25:00;4.93;;;2.30;;
62584;SDS011;48643;51.670;5.808;2024-02-16T02:27:27;4.60;;;2.17;;
62584;SDS011;48643;51.670;5.808;2024-02-16T02:29:54;4.68;;;2.17;;
62584;SDS011;48643;51.670;5.808;2024-02-16T02:32:21;9.02;;;2.85;;
62584;SDS011;48643;51.670;5.808;2024-02-16T02:34:48;6.13;;;2.40;;
62584;SDS011;48643;51.670;5.808;2024-02-16T02:37:15;3.28;;;2.20;;
62584;SDS011;48643;51.670;5.808;2024-02-16T02:39:42;3.58;;;2.20;;
62584;SDS011;48643;51.670;5.808;2024-02-16T02:42:10;4.50;;;2.50;;
62584;SDS011;48643;51.670;5.808;2024-02-16T02:44:37;4.78;;;2.70;;
62584;SDS011;48643;51.670;5.808;2024-02-16T02:47:04;4.35;;;3.00;;
62584;SDS011;48643;51.670;5.808;2024-02-16T02:49:31;8.13;;;5.40;;
62584;SDS011;48643;51.670;5.808;2024-02-16T02:52:01;8.75;;;6.95;;
62584;SDS011;48643;51.670;5.808;2024-02-16T02:54:28;15.15;;;12.38;;
62584;SDS011;48643;51.670;5.808;2024-02-16T02:56:56;4.60;;;3.65;;
62584;SDS011;48643;51.670;5.808;2024-02-16T02:59:23;3.53;;;2.40;;
62584;SDS011;48643;51.670;5.808;2024-02-16T03:01:50;6.05;;;2.42;;
62584;SDS011;48643;51.670;5.808;2024-02-16T03:04:17;4.57;;;2.40;;
62584;SDS011;48643;51.670;5.808;2024-02-16T03:06:44;3.50;;;2.50;;
62584;SDS011;48643;51.670;5.808;2024-02-16T03:09:11;5.40;;;2.30;;
62584;SDS011;48643;51.670;5.808;2024-02-16T03:11:39;5.18;;;2.50;;
62584;SDS011;48643;51.670;5.808;2024-02-16T03:14:06;3.92;;;2.42;;
62584;SDS011;48643;51.670;5.808;2024-02-16T03:16:34;5.97;;;2.53;;
62584;SDS011;48643;51.670;5.808;2024-02-16T03:19:01;3.97;;;2.58;;
62584;SDS011;48643;51.670;5.808;2024-02-16T03:21:28;5.68;;;2.58;;
62584;SDS011;48643;51.670;5.808;2024-02-16T03:23:55;3.30;;;2.33;;
62584;SDS011;48643;51.670;5.808;2024-02-16T03:26:22;3.88;;;2.30;;
62584;SDS011;48643;51.670;5.808;2024-02-16T03:28:49;4.43;;;2.60;;
62584;SDS011;48643;51.670;5.808;2024-02-16T03:31:17;4.05;;;2.40;;
62584;SDS011;48643;51.670;5.808;2024-02-16T03:33:48;3.70;;;2.40;;
62584;SDS011;48643;51.670;5.808;2024-02-16T03:36:16;5.32;;;2.47;;
62584;SDS011;48643;51.670;5.808;2024-02-16T03:38:44;6.15;;;2.65;;
62584;SDS011;48643;51.670;5.808;2024-02-16T03:41:14;6.30;;;2.33;;
62584;SDS011;48643;51.670;5.808;2024-02-16T03:43:42;4.70;;;2.60;;
62584;SDS011;48643;51.670;5.808;2024-02-16T03:46:09;5.45;;;2.40;;
62584;SDS011;48643;51.670;5.808;2024-02-16T03:48:37;3.95;;;2.30;;
62584;SDS011;48643;51.670;5.808;2024-02-16T03:51:05;3.20;;;2.30;;
62584;SDS011;48643;51.670;5.808;2024-02-16T03:53:33;4.50;;;2.53;;
62584;SDS011;48643;51.670;5.808;2024-02-16T03:56:00;3.78;;;2.30;;
62584;SDS011;48643;51.670;5.808;2024-02-16T03:58:27;4.22;;;2.60;;
62584;SDS011;48643;51.670;5.808;2024-02-16T04:00:54;3.92;;;2.55;;
62584;SDS011;48643;51.670;5.808;2024-02-16T04:03:21;5.20;;;2.30;;
62584;SDS011;48643;51.670;5.808;2024-02-16T04:05:48;4.50;;;2.35;;
62584;SDS011;48643;51.670;5.808;2024-02-16T04:08:15;3.60;;;2.38;;
62584;SDS011;48643;51.670;5.808;2024-02-16T04:10:41;3.55;;;2.40;;
62584;SDS011;48643;51.670;5.808;2024-02-16T04:13:08;6.28;;;3.00;;
62584;SDS011;48643;51.670;5.808;2024-02-16T04:15:35;5.72;;;2.50;;
62584;SDS011;48643;51.670;5.808;2024-02-16T04:18:02;4.38;;;2.40;;
62584;SDS011;48643;51.670;5.808;2024-02-16T04:20:29;5.07;;;2.30;;
62584;SDS011;48643;51.670;5.808;2024-02-16T04:22:56;3.00;;;2.20;;
62584;SDS011;48643;51.670;5.808;2024-02-16T04:25:23;4.00;;;2.53;;
62584;SDS011;48643;51.670;5.808;2024-02-16T04:27:50;6.75;;;2.70;;
62584;SDS011;48643;51.670;5.808;2024-02-16T04:30:17;4.38;;;2.42;;
62584;SDS011;48643;51.670;5.808;2024-02-16T04:32:44;4.38;;;2.40;;
62584;SDS011;48643;51.670;5.808;2024-02-16T04:35:11;4.88;;;2.80;;
62584;SDS011;48643;51.670;5.808;2024-02-16T04:37:38;3.85;;;2.60;;
62584;SDS011;48643;51.670;5.808;2024-02-16T04:40:06;3.55;;;2.55;;
62584;SDS011;48643;51.670;5.808;2024-02-16T04:42:33;6.70;;;2.65;;
62584;SDS011;48643;51.670;5.808;2024-02-16T04:45:00;5.22;;;2.50;;
62584;SDS011;48643;51.670;5.808;2024-02-16T04:47:31;3.38;;;2.30;;
62584;SDS011;48643;51.670;5.808;2024-02-16T04:49:58;5.35;;;2.42;;
62584;SDS011;48643;51.670;5.808;2024-02-16T04:52:26;3.92;;;2.50;;
62584;SDS011;48643;51.670;5.808;2024-02-16T04:54:56;5.35;;;2.50;;
62584;SDS011;48643;51.670;5.808;2024-02-16T04:57:22;4.15;;;2.78;;
62584;SDS011;48643;51.670;5.808;2024-02-16T04:59:49;4.93;;;2.50;;
62584;SDS011;48643;51.670;5.808;2024-02-16T05:02:16;4.07;;;2.60;;
62584;SDS011;48643;51.670;5.808;2024-02-16T05:04:43;4.07;;;2.55;;
62584;SDS011;48643;51.670;5.808;2024-02-16T05:07:10;4.28;;;2.70;;
62584;SDS011;48643;51.670;5.808;2024-02-16T05:09:37;3.88;;;2.58;;
62584;SDS011;48643;51.670;5.808;2024-02-16T05:12:06;5.07;;;2.60;;
62584;SDS011;48643;51.670;5.808;2024-02-16T05:14:35;4.28;;;2.70;;
62584;SDS011;48643;51.670;5.808;2024-02-16T05:17:02;4.00;;;2.58;;
62584;SDS011;48643;51.670;5.808;2024-02-16T05:19:33;5.13;;;2.67;;
62584;SDS011;48643;51.670;5.808;2024-02-16T05:22:01;4.65;;;2.55;;
62584;SDS011;48643;51.670;5.808;2024-02-16T05:24:28;4.18;;;2.83;;
62584;SDS011;48643;51.670;5.808;2024-02-16T05:26:55;5.05;;;2.58;;
62584;SDS011;48643;51.670;5.808;2024-02-16T05:29:22;6.07;;;2.60;;
62584;SDS011;48643;51.670;5.808;2024-02-16T05:31:52;6.13;;;2.55;;
62584;SDS011;48643;51.670;5.808;2024-02-16T05:34:19;4.53;;;2.50;;
62584;SDS011;48643;51.670;5.808;2024-02-16T05:36:47;5.15;;;2.97;;
62584;SDS011;48643;51.670;5.808;2024-02-16T05:39:14;4.63;;;2.90;;
62584;SDS011;48643;51.670;5.808;2024-02-16T05:41:52;5.03;;;2.70;;
62584;SDS011;48643;51.670;5.808;2024-02-16T05:44:20;5.28;;;2.63;;
62584;SDS011;48643;51.670;5.808;2024-02-16T05:46:47;5.32;;;2.80;;
62584;SDS011;48643;51.670;5.808;2024-02-16T05:49:14;6.05;;;2.78;;
62584;SDS011;48643;51.670;5.808;2024-02-16T05:51:44;5.75;;;2.90;;
62584;SDS011;48643;51.670;5.808;2024-02-16T05:54:31;4.78;;;2.90;;
62584;SDS011;48643;51.670;5.808;2024-02-16T05:57:03;5.55;;;3.25;;
62584;SDS011;48643;51.670;5.808;2024-02-16T05:59:30;8.18;;;3.20;;
62584;SDS011;48643;51.670;5.808;2024-02-16T06:01:57;4.78;;;3.17;;
62584;SDS011;48643;51.670;5.808;2024-02-16T06:04:25;5.32;;;3.05;;
62584;SDS011;48643;51.670;5.808;2024-02-16T06:06:52;5.05;;;3.20;;
62584;SDS011;48643;51.670;5.808;2024-02-16T06:09:20;6.38;;;3.22;;
62584;SDS011;48643;51.670;5.808;2024-02-16T06:11:47;5.28;;;3.10;;
62584;SDS011;48643;51.670;5.808;2024-02-16T06:14:15;7.50;;;3.33;;
62584;SDS011;48643;51.670;5.808;2024-02-16T06:16:45;5.63;;;3.40;;
62584;SDS011;48643;51.670;5.808;2024-02-16T06:19:12;4.43;;;3.10;;
62584;SDS011;48643;51.670;5.808;2024-02-16T06:21:39;7.63;;;3.53;;
62584;SDS011;48643;51.670;5.808;2024-02-16T06:24:06;8.40;;;3.38;;
62584;SDS011;48643;51.670;5.808;2024-02-16T06:26:34;6.70;;;3.35;;
62584;SDS011;48643;51.670;5.808;2024-02-16T06:29:01;6.30;;;3.42;;
62584;SDS011;48643;51.670;5.808;2024-02-16T06:31:27;5.32;;;3.28;;
62584;SDS011;48643;51.670;5.808;2024-02-16T06:33:54;6.15;;;3.45;;
62584;SDS011;48643;51.670;5.808;2024-02-16T06:36:22;7.05;;;3.60;;
62584;SDS011;48643;51.670;5.808;2024-02-16T06:38:49;6.22;;;3.28;;
62584;SDS011;48643;51.670;5.808;2024-02-16T06:41:18;10.27;;;3.83;;
62584;SDS011;48643;51.670;5.808;2024-02-16T06:43:44;6.10;;;3.75;;
62584;SDS011;48643;51.670;5.808;2024-02-16T06:46:11;6.32;;;3.30;;
62584;SDS011;48643;51.670;5.808;2024-02-16T06:48:38;7.32;;;3.45;;
62584;SDS011;48643;51.670;5.808;2024-02-16T06:51:05;6.25;;;3.50;;
62584;SDS011;48643;51.670;5.808;2024-02-16T06:53:36;6.35;;;3.25;;
62584;SDS011;48643;51.670;5.808;2024-02-16T06:56:03;6.65;;;3.70;;
62584;SDS011;48643;51.670;5.808;2024-02-16T06:58:30;6.90;;;3.90;;
62584;SDS011;48643;51.670;5.808;2024-02-16T07:00:57;5.38;;;3.47;;
62584;SDS011;48643;51.670;5.808;2024-02-16T07:03:29;6.47;;;3.50;;
62584;SDS011;48643;51.670;5.808;2024-02-16T07:05:56;10.63;;;3.70;;
62584;SDS011;48643;51.670;5.808;2024-02-16T07:08:23;7.43;;;3.30;;
62584;SDS011;48643;51.670;5.808;2024-02-16T07:10:52;5.93;;;3.17;;
62584;SDS011;48643;51.670;5.808;2024-02-16T07:13:19;6.03;;;3.50;;
62584;SDS011;48643;51.670;5.808;2024-02-16T07:15:46;6.38;;;3.53;;
62584;SDS011;48643;51.670;5.808;2024-02-16T07:18:13;5.78;;;3.50;;
62584;SDS011;48643;51.670;5.808;2024-02-16T07:20:40;8.20;;;3.40;;
62584;SDS011;48643;51.670;5.808;2024-02-16T07:23:07;8.13;;;3.90;;
62584;SDS011;48643;51.670;5.808;2024-02-16T07:25:35;6.05;;;3.50;;
62584;SDS011;48643;51.670;5.808;2024-02-16T07:28:02;7.97;;;3.60;;
62584;SDS011;48643;51.670;5.808;2024-02-16T07:30:29;6.03;;;3.47;;
62584;SDS011;48643;51.670;5.808;2024-02-16T07:33:08;5.90;;;3.50;;
62584;SDS011;48643;51.670;5.808;2024-02-16T07:35:35;5.75;;;3.47;;
62584;SDS011;48643;51.670;5.808;2024-02-16T07:38:02;9.38;;;3.95;;
62584;SDS011;48643;51.670;5.808;2024-02-16T07:40:29;8.30;;;3.78;;
62584;SDS011;48643;51.670;5.808;2024-02-16T07:42:57;11.52;;;3.88;;
62584;SDS011;48643;51.670;5.808;2024-02-16T07:45:24;6.75;;;3.65;;
62584;SDS011;48643;51.670;5.808;2024-02-16T07:47:51;6.85;;;3.75;;
62584;SDS011;48643;51.670;5.808;2024-02-16T07:50:18;8.07;;;3.58;;
62584;SDS011;48643;51.670;5.808;2024-02-16T07:52:47;11.10;;;4.00;;
62584;SDS011;48643;51.670;5.808;2024-02-16T07:55:14;9.77;;;3.50;;
62584;SDS011;48643;51.670;5.808;2024-02-16T07:57:44;7.85;;;3.75;;
62584;SDS011;48643;51.670;5.808;2024-02-16T08:00:11;7.38;;;3.47;;
62584;SDS011;48643;51.670;5.808;2024-02-16T08:02:38;8.38;;;3.78;;
62584;SDS011;48643;51.670;5.808;2024-02-16T08:05:06;6.63;;;3.53;;
62584;SDS011;48643;51.670;5.808;2024-02-16T08:07:34;6.95;;;3.67;;
62584;SDS011;48643;51.670;5.808;2024-02-16T08:10:01;8.52;;;3.60;;
62584;SDS011;48643;51.670;5.808;2024-02-16T08:12:29;9.23;;;3.80;;
62584;SDS011;48643;51.670;5.808;2024-02-16T08:14:58;7.85;;;3.83;;
62584;SDS011;48643;51.670;5.808;2024-02-16T08:17:26;12.45;;;3.70;;
62584;SDS011;48643;51.670;5.808;2024-02-16T08:19:53;7.63;;;3.95;;
62584;SDS011;48643;51.670;5.808;2024-02-16T08:22:21;7.53;;;3.60;;
62584;SDS011;48643;51.670;5.808;2024-02-16T08:24:47;7.82;;;3.70;;
62584;SDS011;48643;51.670;5.808;2024-02-16T08:27:16;6.05;;;3.33;;
62584;SDS011;48643;51.670;5.808;2024-02-16T08:29:43;6.03;;;3.45;;
62584;SDS011;48643;51.670;5.808;2024-02-16T08:32:10;7.82;;;3.55;;
62584;SDS011;48643;51.670;5.808;2024-02-16T08:34:37;7.30;;;3.53;;
62584;SDS011;48643;51.670;5.808;2024-02-16T08:37:05;5.97;;;3.40;;
62584;SDS011;48643;51.670;5.808;2024-02-16T08:39:33;6.00;;;3.58;;
62584;SDS011;48643;51.670;5.808;2024-02-16T08:42:01;13.45;;;3.80;;
62584;SDS011;48643;51.670;5.808;2024-02-16T08:44:29;9.57;;;4.03;;
62584;SDS011;48643;51.670;5.808;2024-02-16T08:46:56;9.38;;;4.32;;
62584;SDS011;48643;51.670;5.808;2024-02-16T08:49:23;7.95;;;3.85;;
62584;SDS011;48643;51.670;5.808;2024-02-16T08:51:50;9.15;;;4.07;;
62584;SDS011;48643;51.670;5.808;2024-02-16T08:54:17;9.68;;;3.95;;
62584;SDS011;48643;51.670;5.808;2024-02-16T08:56:45;10.30;;;3.97;;
62584;SDS011;48643;51.670;5.808;2024-02-16T08:59:12;9.35;;;3.90;;
62584;SDS011;48643;51.670;5.808;2024-02-16T09:01:39;8.23;;;3.50;;
62584;SDS011;48643;51.670;5.808;2024-02-16T09:04:06;9.63;;;3.78;;
62584;SDS011;48643;51.670;5.808;2024-02-16T09:06:33;7.22;;;3.50;;
62584;SDS011;48643;51.670;5.808;2024-02-16T09:09:05;5.50;;;3.60;;
62584;SDS011;48643;51.670;5.808;2024-02-16T09:11:34;6.47;;;3.72;;
62584;SDS011;48643;51.670;5.808;2024-02-16T09:14:00;8.32;;;3.58;;
62584;SDS011;48643;51.670;5.808;2024-02-16T09:16:27;8.15;;;3.60;;
62584;SDS011;48643;51.670;5.808;2024-02-16T09:18:54;7.63;;;3.90;;
62584;SDS011;48643;51.670;5.808;2024-02-16T09:21:21;9.93;;;3.90;;
62584;SDS011;48643;51.670;5.808;2024-02-16T09:23:50;7.78;;;3.58;;
62584;SDS011;48643;51.670;5.808;2024-02-16T09:26:17;10.60;;;3.90;;
62584;SDS011;48643;51.670;5.808;2024-02-16T09:28:44;7.32;;;3.75;;
62584;SDS011;48643;51.670;5.808;2024-02-16T09:31:14;8.88;;;3.88;;
62584;SDS011;48643;51.670;5.808;2024-02-16T09:33:41;8.75;;;3.95;;
62584;SDS011;48643;51.670;5.808;2024-02-16T09:36:08;9.30;;;4.22;;
62584;SDS011;48643;51.670;5.808;2024-02-16T09:38:35;6.00;;;3.72;;
62584;SDS011;48643;51.670;5.808;2024-02-16T09:41:02;8.85;;;4.18;;
62584;SDS011;48643;51.670;5.808;2024-02-16T09:43:30;7.63;;;4.00;;
62584;SDS011;48643;51.670;5.808;2024-02-16T09:45:57;7.78;;;3.90;;
62584;SDS011;48643;51.670;5.808;2024-02-16T09:48:26;10.43;;;3.95;;
62584;SDS011;48643;51.670;5.808;2024-02-16T09:50:54;7.80;;;3.63;;
62584;SDS011;48643;51.670;5.808;2024-02-16T09:53:27;6.75;;;3.63;;
62584;SDS011;48643;51.670;5.808;2024-02-16T09:55:54;12.00;;;3.97;;
62584;SDS011;48643;51.670;5.808;2024-02-16T09:58:21;8.70;;;4.00;;
62584;SDS011;48643;51.670;5.808;2024-02-16T10:00:51;7.05;;;4.30;;
62584;SDS011;48643;51.670;5.808;2024-02-16T10:03:24;9.00;;;4.00;;
62584;SDS011;48643;51.670;5.808;2024-02-16T10:06:08;9.85;;;4.10;;
62584;SDS011;48643;51.670;5.808;2024-02-16T10:08:51;8.18;;;4.00;;
62584;SDS011;48643;51.670;5.808;2024-02-16T10:11:20;11.32;;;3.85;;
62584;SDS011;48643;51.670;5.808;2024-02-16T10:14:05;6.53;;;4.00;;
62584;SDS011;48643;51.670;5.808;2024-02-16T10:16:32;7.97;;;4.63;;
62584;SDS011;48643;51.670;5.808;2024-02-16T10:19:05;11.10;;;5.20;;
62584;SDS011;48643;51.670;5.808;2024-02-16T10:21:40;10.93;;;4.80;;
62584;SDS011;48643;51.670;5.808;2024-02-16T10:24:08;10.98;;;4.25;;
62584;SDS011;48643;51.670;5.808;2024-02-16T10:26:36;9.57;;;4.70;;
62584;SDS011;48643;51.670;5.808;2024-02-16T10:29:08;9.15;;;4.60;;
62584;SDS011;48643;51.670;5.808;2024-02-16T10:31:36;9.32;;;4.63;;
62584;SDS011;48643;51.670;5.808;2024-02-16T10:34:03;11.90;;;5.28;;
62584;SDS011;48643;51.670;5.808;2024-02-16T10:36:36;9.57;;;4.65;;
62584;SDS011;48643;51.670;5.808;2024-02-16T10:39:04;12.23;;;4.68;;
62584;SDS011;48643;51.670;5.808;2024-02-16T10:41:36;9.00;;;4.68;;
62584;SDS011;48643;51.670;5.808;2024-02-16T10:44:09;12.23;;;4.85;;
62584;SDS011;48643;51.670;5.808;2024-02-16T10:46:36;12.50;;;4.57;;
62584;SDS011;48643;51.670;5.808;2024-02-16T10:49:03;11.80;;;4.68;;
62584;SDS011;48643;51.670;5.808;2024-02-16T10:51:40;15.52;;;4.93;;
62584;SDS011;48643;51.670;5.808;2024-02-16T10:54:10;12.80;;;5.22;;
62584;SDS011;48643;51.670;5.808;2024-02-16T10:56:40;9.90;;;4.30;;
62584;SDS011;48643;51.670;5.808;2024-02-16T10:59:08;12.50;;;4.75;;
62584;SDS011;48643;51.670;5.808;2024-02-16T11:01:39;10.43;;;5.03;;
62584;SDS011;48643;51.670;5.808;2024-02-16T11:04:08;9.38;;;4.50;;
62584;SDS011;48643;51.670;5.808;2024-02-16T11:06:53;13.65;;;4.75;;
62584;SDS011;48643;51.670;5.808;2024-02-16T11:09:38;9.32;;;4.70;;
62584;SDS011;48643;51.670;5.808;2024-02-16T11:12:06;11.55;;;5.47;;
62584;SDS011;48643;51.670;5.808;2024-02-16T11:14:39;11.75;;;4.70;;
62584;SDS011;48643;51.670;5.808;2024-02-16T11:17:21;10.77;;;5.50;;
62584;SDS011;48643;51.670;5.808;2024-02-16T11:19:49;13.00;;;5.00;;
62584;SDS011;48643;51.670;5.808;2024-02-16T11:22:20;9.82;;;4.65;;
62584;SDS011;48643;51.670;5.808;2024-02-16T11:24:48;9.32;;;4.40;;
62584;SDS011;48643;51.670;5.808;2024-02-16T11:27:16;8.97;;;4.43;;
62584;SDS011;48643;51.670;5.808;2024-02-16T11:29:48;13.32;;;5.03;;
62584;SDS011;48643;51.670;5.808;2024-02-16T11:32:16;13.55;;;4.82;;
62584;SDS011;48643;51.670;5.808;2024-02-16T11:34:44;15.77;;;5.20;;
62584;SDS011;48643;51.670;5.808;2024-02-16T11:37:12;10.27;;;4.90;;
62584;SDS011;48643;51.670;5.808;2024-02-16T11:39:40;11.95;;;4.57;;
62584;SDS011;48643;51.670;5.808;2024-02-16T11:42:12;9.63;;;4.93;;
62584;SDS011;48643;51.670;5.808;2024-02-16T11:44:49;10.67;;;5.13;;
62584;SDS011;48643;51.670;5.808;2024-02-16T11:47:26;13.00;;;5.38;;
62584;SDS011;48643;51.670;5.808;2024-02-16T11:50:06;11.53;;;5.00;;
62584;SDS011;48643;51.670;5.808;2024-02-16T11:52:38;12.13;;;5.13;;
62584;SDS011;48643;51.670;5.808;2024-02-16T11:55:09;14.95;;;6.07;;
62584;SDS011;48643;51.670;5.808;2024-02-16T11:57:37;12.65;;;5.45;;
62584;SDS011;48643;51.670;5.808;2024-02-16T12:00:05;11.77;;;5.65;;
62584;SDS011;48643;51.670;5.808;2024-02-16T12:02:37;11.98;;;5.45;;
62584;SDS011;48643;51.670;5.808;2024-02-16T12:05:04;14.35;;;5.72;;
62584;SDS011;48643;51.670;5.808;2024-02-16T12:07:32;11.40;;;5.32;;
62584;SDS011;48643;51.670;5.808;2024-02-16T12:10:02;12.10;;;5.40;;
62584;SDS011;48643;51.670;5.808;2024-02-16T12:12:31;12.32;;;5.32;;
62584;SDS011;48643;51.670;5.808;2024-02-16T12:14:59;12.73;;;5.57;;
62584;SDS011;48643;51.670;5.808;2024-02-16T12:17:26;13.85;;;5.65;;
62584;SDS011;48643;51.670;5.808;2024-02-16T12:19:53;12.07;;;5.82;;
62584;SDS011;48643;51.670;5.808;2024-02-16T12:22:21;11.80;;;5.80;;
62584;SDS011;48643;51.670;5.808;2024-02-16T12:24:49;13.07;;;5.80;;
62584;SDS011;48643;51.670;5.808;2024-02-16T12:27:17;8.82;;;5.70;;
62584;SDS011;48643;51.670;5.808;2024-02-16T12:29:44;11.55;;;6.07;;
62584;SDS011;48643;51.670;5.808;2024-02-16T12:32:11;13.20;;;5.93;;
62584;SDS011;48643;51.670;5.808;2024-02-16T12:34:38;10.13;;;5.88;;
62584;SDS011;48643;51.670;5.808;2024-02-16T12:37:08;10.27;;;6.10;;
62584;SDS011;48643;51.670;5.808;2024-02-16T12:39:36;12.77;;;6.53;;
62584;SDS011;48643;51.670;5.808;2024-02-16T12:42:04;9.50;;;6.03;;
62584;SDS011;48643;51.670;5.808;2024-02-16T12:44:31;11.23;;;6.40;;
62584;SDS011;48643;51.670;5.808;2024-02-16T12:46:58;11.38;;;6.10;;
62584;SDS011;48643;51.670;5.808;2024-02-16T12:49:25;11.35;;;6.30;;
62584;SDS011;48643;51.670;5.808;2024-02-16T12:51:52;8.20;;;5.70;;
62584;SDS011;48643;51.670;5.808;2024-02-16T12:54:19;9.75;;;6.18;;
62584;SDS011;48643;51.670;5.808;2024-02-16T12:56:46;11.48;;;6.43;;
62584;SDS011;48643;51.670;5.808;2024-02-16T12:59:14;10.13;;;6.55;;
62584;SDS011;48643;51.670;5.808;2024-02-16T13:01:40;19.95;;;7.45;;
62584;SDS011;48643;51.670;5.808;2024-02-16T13:04:09;11.85;;;7.00;;
62584;SDS011;48643;51.670;5.808;2024-02-16T13:06:36;11.25;;;6.60;;
62584;SDS011;48643;51.670;5.808;2024-02-16T13:09:04;13.73;;;7.05;;
62584;SDS011;48643;51.670;5.808;2024-02-16T13:11:31;16.55;;;6.95;;
62584;SDS011;48643;51.670;5.808;2024-02-16T13:14:00;12.67;;;6.87;;
62584;SDS011;48643;51.670;5.808;2024-02-16T13:16:27;12.73;;;6.63;;
62584;SDS011;48643;51.670;5.808;2024-02-16T13:18:54;11.75;;;6.63;;
62584;SDS011;48643;51.670;5.808;2024-02-16T13:21:21;12.25;;;6.70;;
62584;SDS011;48643;51.670;5.808;2024-02-16T13:23:48;11.98;;;6.45;;
62584;SDS011;48643;51.670;5.808;2024-02-16T13:26:14;12.68;;;6.93;;
62584;SDS011;48643;51.670;5.808;2024-02-16T13:28:41;11.13;;;6.00;;
62584;SDS011;48643;51.670;5.808;2024-02-16T13:31:08;9.93;;;6.30;;
62584;SDS011;48643;51.670;5.808;2024-02-16T13:33:37;8.13;;;5.90;;
62584;SDS011;48643;51.670;5.808;2024-02-16T13:36:04;10.93;;;5.68;;
62584;SDS011;48643;51.670;5.808;2024-02-16T13:38:32;9.60;;;5.75;;
62584;SDS011;48643;51.670;5.808;2024-02-16T13:40:58;9.20;;;6.28;;
62584;SDS011;48643;51.670;5.808;2024-02-16T13:43:25;10.10;;;5.90;;
62584;SDS011;48643;51.670;5.808;2024-02-16T13:45:53;12.98;;;6.13;;
62584;SDS011;48643;51.670;5.808;2024-02-16T13:48:21;9.10;;;5.70;;
62584;SDS011;48643;51.670;5.808;2024-02-16T13:50:49;8.57;;;5.75;;
62584;SDS011;48643;51.670;5.808;2024-02-16T13:53:16;8.45;;;6.00;;
62584;SDS011;48643;51.670;5.808;2024-02-16T13:55:47;9.02;;;6.03;;
62584;SDS011;48643;51.670;5.808;2024-02-16T13:58:14;9.52;;;6.18;;
62584;SDS011;48643;51.670;5.808;2024-02-16T14:00:41;11.07;;;5.85;;
62584;SDS011;48643;51.670;5.808;2024-02-16T14:03:10;10.27;;;5.85;;
62584;SDS011;48643;51.670;5.808;2024-02-16T14:05:37;8.18;;;5.50;;
62584;SDS011;48643;51.670;5.808;2024-02-16T14:08:05;8.88;;;5.57;;
62584;SDS011;48643;51.670;5.808;2024-02-16T14:10:35;10.20;;;5.28;;
62584;SDS011;48643;51.670;5.808;2024-02-16T14:13:02;8.93;;;5.63;;
62584;SDS011;48643;51.670;5.808;2024-02-16T14:15:29;8.52;;;5.13;;
62584;SDS011;48643;51.670;5.808;2024-02-16T14:17:58;8.73;;;5.25;;
62584;SDS011;48643;51.670;5.808;2024-02-16T14:20:36;7.97;;;5.22;;
62584;SDS011;48643;51.670;5.808;2024-02-16T14:23:03;8.85;;;5.40;;
62584;SDS011;48643;51.670;5.808;2024-02-16T14:25:34;8.18;;;4.75;;
62584;SDS011;48643;51.670;5.808;2024-02-16T14:28:03;8.13;;;5.10;;
62584;SDS011;48643;51.670;5.808;2024-02-16T14:30:30;7.07;;;4.82;;
62584;SDS011;48643;51.670;5.808;2024-02-16T14:32:59;7.40;;;5.03;;
62584;SDS011;48643;51.670;5.808;2024-02-16T14:35:26;7.97;;;4.93;;
62584;SDS011;48643;51.670;5.808;2024-02-16T14:37:53;10.10;;;5.38;;
62584;SDS011;48643;51.670;5.808;2024-02-16T14:40:20;6.28;;;4.90;;
62584;SDS011;48643;51.670;5.808;2024-02-16T14:42:47;7.50;;;4.65;;
62584;SDS011;48643;51.670;5.808;2024-02-16T14:45:17;7.32;;;4.50;;
62584;SDS011;48643;51.670;5.808;2024-02-16T14:47:47;6.10;;;4.20;;
62584;SDS011;48643;51.670;5.808;2024-02-16T14:50:15;6.22;;;4.10;;
62584;SDS011;48643;51.670;5.808;2024-02-16T14:52:42;7.38;;;4.07;;
62584;SDS011;48643;51.670;5.808;2024-02-16T14:55:12;7.07;;;4.40;;